Time;durP1;ratioP1;P1;durP2;ratioP2;P2;SDS_P1;SDS_P2;PMS_P1;PMS_P2;Temp;Humidity;BMP_temperature;BMP_pressure;BME280_temperature;BME280_humidity;BME280_pressure;Samples;Min_cycle;Max_cycle;Signal;HPM_P1;HPM_P2
2023/05/09 00:02:19;;;;;;;9.75;7.25;;;;;;;;;;5090319;28;20083;-70
2023/05/09 00:04:46;;;;;;;8.57;7.30;;;;;;;;;;5089819;28;20440;-71
2023/05/09 00:07:12;;;;;;;13.27;8.20;;;;;;;;;;5093215;28;20052;-70
2023/05/09 00:09:39;;;;;;;9.05;6.93;;;;;;;;;;5094214;28;20131;-71
2023/05/09 00:12:08;;;;;;;8.75;7.32;;;;;;;;;;5094011;28;20050;-70
2023/05/09 00:14:34;;;;;;;10.07;7.82;;;;;;;;;;5093418;28;20109;-70
2023/05/09 00:17:01;;;;;;;10.43;7.63;;;;;;;;;;5093389;28;20067;-70
2023/05/09 00:19:27;;;;;;;10.98;8.13;;;;;;;;;;5093411;28;20390;-70
2023/05/09 00:21:54;;;;;;;9.90;8.27;;;;;;;;;;5093511;28;20469;-70
2023/05/09 00:24:21;;;;;;;12.43;9.48;;;;;;;;;;5093374;28;20138;-70
2023/05/09 00:26:47;;;;;;;11.73;9.10;;;;;;;;;;5093750;28;20048;-70
2023/05/09 00:29:15;;;;;;;13.55;9.63;;;;;;;;;;5092967;28;20139;-71
2023/05/09 00:31:42;;;;;;;13.90;9.23;;;;;;;;;;5094074;28;20403;-70
2023/05/09 00:34:08;;;;;;;10.48;8.80;;;;;;;;;;5093121;28;20419;-70
2023/05/09 00:36:35;;;;;;;11.95;9.57;;;;;;;;;;5093384;28;20382;-70
2023/05/09 00:39:01;;;;;;;15.15;9.43;;;;;;;;;;5093388;28;20139;-70
2023/05/09 00:41:28;;;;;;;10.48;8.82;;;;;;;;;;5093622;28;20048;-70
2023/05/09 00:43:54;;;;;;;13.57;9.38;;;;;;;;;;5093128;28;20390;-70
2023/05/09 00:46:23;;;;;;;11.88;9.18;;;;;;;;;;5093127;28;20416;-71
2023/05/09 00:48:51;;;;;;;12.50;9.07;;;;;;;;;;5092588;28;20070;-70
2023/05/09 00:51:18;;;;;;;10.23;8.90;;;;;;;;;;5092711;28;20138;-70
2023/05/09 00:53:45;;;;;;;10.50;8.55;;;;;;;;;;5093078;28;20040;-70
2023/05/09 00:56:12;;;;;;;11.90;9.15;;;;;;;;;;5092822;28;20048;-71
2023/05/09 00:58:38;;;;;;;10.82;8.60;;;;;;;;;;5092704;28;20046;-71
2023/05/09 01:01:05;;;;;;;10.10;8.48;;;;;;;;;;5092581;28;20040;-70
2023/05/09 01:03:33;;;;;;;11.65;9.00;;;;;;;;;;5092783;28;20394;-71
2023/05/09 01:06:05;;;;;;;12.73;9.30;;;;;;;;;;5092880;28;20040;-70
2023/05/09 01:08:43;;;;;;;11.70;8.95;;;;;;;;;;5093059;28;20416;-70
2023/05/09 01:11:12;;;;;;;11.63;9.23;;;;;;;;;;5093120;28;20054;-70
2023/05/09 01:13:49;;;;;;;11.15;8.35;;;;;;;;;;5092584;28;20149;-70
2023/05/09 01:16:24;;;;;;;11.20;8.77;;;;;;;;;;5092107;28;20050;-70
2023/05/09 01:18:59;;;;;;;10.10;8.27;;;;;;;;;;5092870;28;20083;-70
2023/05/09 01:21:29;;;;;;;11.88;8.35;;;;;;;;;;5092573;28;20066;-70
2023/05/09 01:24:25;;;;;;;11.32;8.77;;;;;;;;;;5092511;28;20131;-71
2023/05/09 01:27:09;;;;;;;11.98;8.70;;;;;;;;;;5091950;28;20052;-71
2023/05/09 01:29:41;;;;;;;11.60;8.65;;;;;;;;;;5092549;28;20135;-70
2023/05/09 01:32:10;;;;;;;10.10;7.97;;;;;;;;;;5091997;28;20050;-70
2023/05/09 01:34:38;;;;;;;9.07;7.95;;;;;;;;;;5092228;28;20044;-70
2023/05/09 01:37:06;;;;;;;13.30;8.50;;;;;;;;;;5091956;28;20241;-70
2023/05/09 01:39:34;;;;;;;11.80;8.85;;;;;;;;;;5092224;28;20044;-70
2023/05/09 01:42:03;;;;;;;10.27;8.52;;;;;;;;;;5092087;28;20054;-70
2023/05/09 01:44:35;;;;;;;10.23;8.13;;;;;;;;;;5092113;28;20092;-70
2023/05/09 01:47:05;;;;;;;8.90;7.93;;;;;;;;;;5091393;28;20060;-70
2023/05/09 01:49:33;;;;;;;10.93;8.40;;;;;;;;;;5092344;28;20052;-70
2023/05/09 01:52:03;;;;;;;11.80;7.70;;;;;;;;;;5091803;28;20051;-70
2023/05/09 01:54:30;;;;;;;10.45;8.05;;;;;;;;;;5092233;28;20047;-70
2023/05/09 01:56:58;;;;;;;11.52;7.70;;;;;;;;;;5091432;28;20405;-70
2023/05/09 01:59:27;;;;;;;11.70;7.80;;;;;;;;;;5091740;28;20570;-70
2023/05/09 02:01:56;;;;;;;10.80;7.60;;;;;;;;;;5092267;28;20528;-70
2023/05/09 02:04:24;;;;;;;10.15;8.00;;;;;;;;;;5091232;28;20062;-70
2023/05/09 02:06:51;;;;;;;11.20;8.65;;;;;;;;;;5091960;28;20040;-70
2023/05/09 02:09:18;;;;;;;12.43;8.80;;;;;;;;;;5091462;28;20044;-70
2023/05/09 02:11:45;;;;;;;11.15;9.02;;;;;;;;;;5091681;28;20386;-70
2023/05/09 02:14:12;;;;;;;10.88;7.95;;;;;;;;;;5091069;28;20051;-70
2023/05/09 02:16:39;;;;;;;10.32;7.95;;;;;;;;;;5091874;28;20050;-70
2023/05/09 02:19:06;;;;;;;8.60;7.18;;;;;;;;;;5090968;28;20099;-71
2023/05/09 02:21:34;;;;;;;10.02;7.80;;;;;;;;;;5091446;28;20151;-70
2023/05/09 02:24:01;;;;;;;11.75;7.85;;;;;;;;;;5091107;28;20425;-71
2023/05/09 02:26:28;;;;;;;8.90;6.78;;;;;;;;;;5091578;28;20066;-70
2023/05/09 02:28:56;;;;;;;8.90;7.07;;;;;;;;;;5089735;28;20086;-71
2023/05/09 02:31:26;;;;;;;9.50;7.18;;;;;;;;;;5091212;28;20093;-70
2023/05/09 02:33:54;;;;;;;10.50;7.50;;;;;;;;;;5090803;28;20052;-71
2023/05/09 02:36:22;;;;;;;12.00;7.38;;;;;;;;;;5091080;28;20090;-71
2023/05/09 02:38:50;;;;;;;9.88;7.93;;;;;;;;;;5090682;28;20044;-71
2023/05/09 02:41:17;;;;;;;11.15;7.82;;;;;;;;;;5091040;28;20050;-70
2023/05/09 02:43:44;;;;;;;11.80;8.35;;;;;;;;;;5090720;28;20051;-70
2023/05/09 02:46:11;;;;;;;9.20;7.25;;;;;;;;;;5090765;28;20050;-70
2023/05/09 02:48:37;;;;;;;10.93;7.88;;;;;;;;;;5090538;28;20131;-70
2023/05/09 02:51:04;;;;;;;9.05;6.45;;;;;;;;;;5090979;28;20044;-70
2023/05/09 02:53:31;;;;;;;10.07;7.53;;;;;;;;;;5090637;28;20044;-70
2023/05/09 02:55:58;;;;;;;13.10;7.55;;;;;;;;;;5090393;28;20048;-70
2023/05/09 02:58:25;;;;;;;11.38;8.38;;;;;;;;;;5090575;28;20379;-70
2023/05/09 03:00:52;;;;;;;11.27;7.30;;;;;;;;;;5090645;28;20051;-70
2023/05/09 03:03:18;;;;;;;10.07;7.32;;;;;;;;;;5090393;28;20050;-70
2023/05/09 03:05:45;;;;;;;11.32;7.80;;;;;;;;;;5090676;28;20050;-70
2023/05/09 03:08:11;;;;;;;11.63;7.57;;;;;;;;;;5090895;28;20055;-71
2023/05/09 03:10:38;;;;;;;10.68;8.15;;;;;;;;;;5090830;28;20044;-71
2023/05/09 03:13:06;;;;;;;11.32;7.82;;;;;;;;;;5090907;28;20044;-71
2023/05/09 03:15:32;;;;;;;13.45;8.07;;;;;;;;;;5090696;28;20043;-70
2023/05/09 03:17:59;;;;;;;13.05;8.50;;;;;;;;;;5090256;28;20040;-70
2023/05/09 03:20:26;;;;;;;14.55;8.15;;;;;;;;;;5090595;28;20386;-71
2023/05/09 03:22:52;;;;;;;14.43;8.57;;;;;;;;;;5090285;28;20063;-70
2023/05/09 03:25:19;;;;;;;15.43;8.80;;;;;;;;;;5090474;28;20485;-70
2023/05/09 03:27:45;;;;;;;15.68;8.18;;;;;;;;;;5090307;28;20378;-70
2023/05/09 03:30:14;;;;;;;15.13;9.23;;;;;;;;;;5089842;28;20048;-70
2023/05/09 03:32:41;;;;;;;15.45;9.02;;;;;;;;;;5090503;28;20052;-71
2023/05/09 03:35:08;;;;;;;12.15;8.93;;;;;;;;;;5089837;28;20044;-70
2023/05/09 03:37:34;;;;;;;15.40;9.52;;;;;;;;;;5089650;28;20048;-70
2023/05/09 03:40:01;;;;;;;15.45;10.07;;;;;;;;;;5090215;28;20048;-70
2023/05/09 03:42:27;;;;;;;18.20;10.07;;;;;;;;;;5090242;28;20044;-71
2023/05/09 03:44:54;;;;;;;16.15;10.57;;;;;;;;;;5089939;28;20048;-70
2023/05/09 03:47:22;;;;;;;14.27;9.73;;;;;;;;;;5089477;28;20048;-70
2023/05/09 03:49:49;;;;;;;16.45;9.50;;;;;;;;;;5090184;28;20044;-71
2023/05/09 03:52:15;;;;;;;15.88;9.65;;;;;;;;;;5089453;28;20048;-70
2023/05/09 03:54:42;;;;;;;13.55;9.82;;;;;;;;;;5090085;28;20048;-70
2023/05/09 03:57:08;;;;;;;14.40;9.60;;;;;;;;;;5089543;28;20046;-70
2023/05/09 03:59:35;;;;;;;15.70;9.38;;;;;;;;;;5089965;28;20040;-70
2023/05/09 04:02:01;;;;;;;16.80;9.93;;;;;;;;;;5090145;28;20051;-71
2023/05/09 04:04:29;;;;;;;12.88;9.35;;;;;;;;;;5089877;28;20062;-70
2023/05/09 04:06:56;;;;;;;16.92;10.60;;;;;;;;;;5089531;28;20413;-70
2023/05/09 04:09:23;;;;;;;14.65;10.18;;;;;;;;;;5090089;28;20413;-70
2023/05/09 04:11:49;;;;;;;16.35;10.07;;;;;;;;;;5090042;28;20052;-70
2023/05/09 04:14:16;;;;;;;16.15;9.07;;;;;;;;;;5089690;28;20409;-71
2023/05/09 04:16:42;;;;;;;17.25;10.15;;;;;;;;;;5089732;28;20066;-70
2023/05/09 04:19:09;;;;;;;14.45;9.77;;;;;;;;;;5089245;28;20408;-71
2023/05/09 04:21:37;;;;;;;14.23;10.30;;;;;;;;;;5089899;28;20048;-71
2023/05/09 04:24:03;;;;;;;14.98;9.85;;;;;;;;;;5089971;28;20048;-71
2023/05/09 04:26:30;;;;;;;14.93;11.10;;;;;;;;;;5090138;28;20047;-71
2023/05/09 04:28:56;;;;;;;15.02;10.73;;;;;;;;;;5089327;28;20046;-71
2023/05/09 04:31:23;;;;;;;14.30;9.75;;;;;;;;;;5089712;28;20058;-71
2023/05/09 04:33:50;;;;;;;10.93;8.23;;;;;;;;;;5089382;28;20051;-71
2023/05/09 04:36:16;;;;;;;13.25;8.73;;;;;;;;;;5089619;28;20048;-71
2023/05/09 04:38:45;;;;;;;11.13;7.97;;;;;;;;;;5089325;28;20135;-71
2023/05/09 04:41:11;;;;;;;12.40;8.70;;;;;;;;;;5089967;28;20382;-71
2023/05/09 04:43:38;;;;;;;12.38;9.27;;;;;;;;;;5089500;28;20054;-71
2023/05/09 04:46:06;;;;;;;13.02;9.43;;;;;;;;;;5089473;28;20050;-71
2023/05/09 04:48:33;;;;;;;13.18;9.50;;;;;;;;;;5088932;28;20077;-71
2023/05/09 04:50:59;;;;;;;12.32;8.75;;;;;;;;;;5089653;28;20101;-71
2023/05/09 04:53:27;;;;;;;11.68;8.63;;;;;;;;;;5092999;28;20044;-71
2023/05/09 04:55:55;;;;;;;12.05;8.50;;;;;;;;;;5093313;28;20048;-71
2023/05/09 04:58:21;;;;;;;12.45;8.52;;;;;;;;;;5092595;28;20046;-71
2023/05/09 05:00:48;;;;;;;10.93;8.75;;;;;;;;;;5093160;28;20051;-71
2023/05/09 05:03:16;;;;;;;13.40;8.60;;;;;;;;;;5093101;28;20066;-67
2023/05/09 05:05:43;;;;;;;9.95;8.00;;;;;;;;;;5093619;28;20048;-68
2023/05/09 05:08:10;;;;;;;12.13;8.13;;;;;;;;;;5093232;28;20044;-68
2023/05/09 05:10:36;;;;;;;12.02;8.30;;;;;;;;;;5093180;28;20048;-68
2023/05/09 05:13:04;;;;;;;11.63;8.52;;;;;;;;;;5093353;28;20044;-67
2023/05/09 05:15:31;;;;;;;11.30;8.50;;;;;;;;;;5093485;28;20044;-67
2023/05/09 05:17:57;;;;;;;11.52;8.20;;;;;;;;;;5093810;28;20412;-68
2023/05/09 05:20:24;;;;;;;9.25;7.68;;;;;;;;;;5093093;28;20040;-68
2023/05/09 05:22:50;;;;;;;9.52;8.13;;;;;;;;;;5094075;28;20409;-68
2023/05/09 05:25:17;;;;;;;15.05;8.98;;;;;;;;;;5093138;28;20130;-68
2023/05/09 05:27:43;;;;;;;12.10;9.00;;;;;;;;;;5093414;28;20106;-67
2023/05/09 05:30:14;;;;;;;10.98;8.88;;;;;;;;;;5094046;28;20048;-67
2023/05/09 05:32:40;;;;;;;14.85;8.55;;;;;;;;;;5094105;28;20074;-67
2023/05/09 05:35:09;;;;;;;9.57;8.25;;;;;;;;;;5093716;28;20140;-67
2023/05/09 05:37:35;;;;;;;9.60;8.18;;;;;;;;;;5093690;28;20052;-67
2023/05/09 05:40:02;;;;;;;9.75;7.65;;;;;;;;;;5094742;28;20044;-67
2023/05/09 05:42:29;;;;;;;7.65;6.85;;;;;;;;;;5093523;28;20052;-67
2023/05/09 05:44:56;;;;;;;9.40;7.47;;;;;;;;;;5093720;28;20052;-67
2023/05/09 05:47:24;;;;;;;8.73;7.18;;;;;;;;;;5093402;28;20048;-67
2023/05/09 05:49:50;;;;;;;8.50;7.25;;;;;;;;;;5092978;28;20047;-67
2023/05/09 05:52:17;;;;;;;9.50;7.43;;;;;;;;;;5093308;28;20043;-68
2023/05/09 05:54:43;;;;;;;8.60;7.10;;;;;;;;;;5092774;28;20058;-67
2023/05/09 05:57:10;;;;;;;8.80;7.45;;;;;;;;;;5092769;28;20474;-67
2023/05/09 05:59:36;;;;;;;11.40;8.23;;;;;;;;;;5092554;28;20402;-67
2023/05/09 06:02:03;;;;;;;10.40;8.20;;;;;;;;;;5092358;28;20052;-67
2023/05/09 06:04:31;;;;;;;12.55;8.63;;;;;;;;;;5091204;28;20139;-67
2023/05/09 06:06:57;;;;;;;11.95;8.27;;;;;;;;;;5092531;28;20056;-67
2023/05/09 06:09:24;;;;;;;9.70;7.30;;;;;;;;;;5092095;28;20048;-67
2023/05/09 06:11:51;;;;;;;13.05;8.48;;;;;;;;;;5092447;28;20051;-67
2023/05/09 06:14:17;;;;;;;10.02;7.47;;;;;;;;;;5092498;28;20482;-67
2023/05/09 06:16:44;;;;;;;9.88;7.32;;;;;;;;;;5092154;28;20101;-67
2023/05/09 06:19:11;;;;;;;10.18;7.50;;;;;;;;;;5092557;28;20497;-67
2023/05/09 06:21:39;;;;;;;10.02;7.35;;;;;;;;;;5091988;28;20044;-68
2023/05/09 06:24:06;;;;;;;7.75;6.82;;;;;;;;;;5092331;28;20052;-67
2023/05/09 06:26:32;;;;;;;8.15;7.30;;;;;;;;;;5091818;28;20044;-67
2023/05/09 06:28:59;;;;;;;8.55;7.57;;;;;;;;;;5091919;28;20040;-67
2023/05/09 06:31:26;;;;;;;9.93;7.22;;;;;;;;;;5092101;28;20331;-67
2023/05/09 06:33:52;;;;;;;11.18;7.53;;;;;;;;;;5091908;28;20130;-67
2023/05/09 06:36:19;;;;;;;7.47;6.72;;;;;;;;;;5092082;28;20047;-67
2023/05/09 06:38:47;;;;;;;7.63;6.65;;;;;;;;;;5092203;28;20051;-67
2023/05/09 06:41:13;;;;;;;8.85;7.32;;;;;;;;;;5091681;28;20048;-66
2023/05/09 06:43:40;;;;;;;9.93;7.07;;;;;;;;;;5091279;28;20256;-66
2023/05/09 06:46:06;;;;;;;9.55;6.93;;;;;;;;;;5091156;28;20048;-66
2023/05/09 06:48:33;;;;;;;8.23;7.05;;;;;;;;;;5090465;28;20044;-67
2023/05/09 06:50:59;;;;;;;8.32;6.72;;;;;;;;;;5091394;28;20478;-67
2023/05/09 06:53:26;;;;;;;8.20;7.00;;;;;;;;;;5089596;28;20051;-66
2023/05/09 06:55:54;;;;;;;7.45;6.45;;;;;;;;;;5089111;28;20040;-65
2023/05/09 06:58:20;;;;;;;8.50;6.15;;;;;;;;;;5090440;28;20048;-64
2023/05/09 07:00:47;;;;;;;8.35;6.53;;;;;;;;;;5091216;28;20504;-67
2023/05/09 07:03:14;;;;;;;8.00;5.95;;;;;;;;;;5090597;28;20131;-67
2023/05/09 07:05:41;;;;;;;9.70;6.88;;;;;;;;;;5090861;28;20058;-67
2023/05/09 07:08:07;;;;;;;7.95;6.13;;;;;;;;;;5090278;28;20048;-67
2023/05/09 07:10:34;;;;;;;7.72;6.13;;;;;;;;;;5091001;28;20040;-66
2023/05/09 07:13:02;;;;;;;7.60;6.40;;;;;;;;;;5090841;28;20532;-67
2023/05/09 07:15:29;;;;;;;7.88;6.10;;;;;;;;;;5090378;28;20404;-67
2023/05/09 07:17:55;;;;;;;7.30;6.55;;;;;;;;;;5090311;28;20040;-66
2023/05/09 07:20:22;;;;;;;7.22;6.07;;;;;;;;;;5088859;28;20042;-66
2023/05/09 07:22:48;;;;;;;9.52;6.45;;;;;;;;;;5091046;28;20051;-67
2023/05/09 07:33:22;;;;;;;7.63;6.35;;;;;;;;;;5581226;22;20047;-76
2023/05/09 07:35:49;;;;;;;6.80;6.10;;;;;;;;;;5109693;28;20048;-76
2023/05/09 07:38:16;;;;;;;6.78;5.75;;;;;;;;;;5111514;28;20083;-75
2023/05/09 07:40:42;;;;;;;6.35;5.72;;;;;;;;;;5111612;28;20056;-76
2023/05/09 07:43:09;;;;;;;7.13;5.80;;;;;;;;;;5110745;28;20067;-76
2023/05/09 07:45:36;;;;;;;9.52;5.32;;;;;;;;;;5121541;22;20794;-70
2023/05/09 07:48:02;;;;;;;7.18;5.70;;;;;;;;;;5109859;28;20044;-70
2023/05/09 07:50:30;;;;;;;6.60;5.22;;;;;;;;;;5109481;28;20047;-70
2023/05/09 07:52:57;;;;;;;7.43;5.43;;;;;;;;;;5109300;28;20044;-71
2023/05/09 07:55:23;;;;;;;6.07;5.25;;;;;;;;;;5110846;28;20047;-66
2023/05/09 07:57:50;;;;;;;5.97;4.38;;;;;;;;;;5110404;28;20091;-71
2023/05/09 08:00:22;;;;;;;5.80;5.20;;;;;;;;;;5109676;28;20054;-70
2023/05/09 08:02:48;;;;;;;5.88;5.03;;;;;;;;;;5109453;28;20059;-70
2023/05/09 08:05:15;;;;;;;6.07;4.68;;;;;;;;;;5109957;28;20395;-70
2023/05/09 08:07:43;;;;;;;5.45;4.10;;;;;;;;;;5107622;28;20062;-70
2023/05/09 08:10:10;;;;;;;5.30;4.20;;;;;;;;;;5089721;28;20473;-71
2023/05/09 08:12:36;;;;;;;4.57;3.78;;;;;;;;;;5089344;28;20048;-68
2023/05/09 08:15:03;;;;;;;6.28;4.20;;;;;;;;;;5089346;28;20040;-67
2023/05/09 08:17:30;;;;;;;4.00;3.22;;;;;;;;;;5089411;28;20044;-67
2023/05/09 08:19:56;;;;;;;5.07;3.45;;;;;;;;;;5089756;28;20358;-67
2023/05/09 08:22:23;;;;;;;7.82;3.65;;;;;;;;;;5089228;28;20048;-67
2023/05/09 08:24:51;;;;;;;5.85;3.50;;;;;;;;;;5090079;28;20465;-69
2023/05/09 08:27:17;;;;;;;4.28;3.80;;;;;;;;;;5090890;28;20059;-71
2023/05/09 08:29:44;;;;;;;5.13;3.97;;;;;;;;;;5093126;28;20051;-70
2023/05/09 08:32:11;;;;;;;5.15;3.78;;;;;;;;;;5092958;28;20378;-70
2023/05/09 08:34:37;;;;;;;6.18;3.80;;;;;;;;;;5100815;28;20056;-69
2023/05/09 08:37:04;;;;;;;5.78;4.30;;;;;;;;;;5113507;28;20047;-69
2023/05/09 08:39:33;;;;;;;6.57;4.45;;;;;;;;;;5109177;27;20672;-68
2023/05/09 08:42:02;;;;;;;7.55;5.30;;;;;;;;;;5114299;28;20043;-69
2023/05/09 08:44:30;;;;;;;5.90;4.88;;;;;;;;;;5113306;28;20384;-66
2023/05/09 08:46:59;;;;;;;6.13;4.70;;;;;;;;;;5113544;28;20052;-67
2023/05/09 08:49:26;;;;;;;5.07;4.38;;;;;;;;;;5112845;28;20055;-67
2023/05/09 08:51:53;;;;;;;7.75;3.92;;;;;;;;;;5113272;28;20051;-67
2023/05/09 08:54:21;;;;;;;8.77;5.15;;;;;;;;;;5113417;28;20055;-68
2023/05/09 08:56:48;;;;;;;7.30;5.45;;;;;;;;;;5111883;28;20131;-69
2023/05/09 08:59:18;;;;;;;5.90;4.53;;;;;;;;;;5101618;28;20054;-69
2023/05/09 09:01:45;;;;;;;5.95;4.32;;;;;;;;;;5112873;28;20139;-68
2023/05/09 09:04:11;;;;;;;6.13;4.35;;;;;;;;;;5102097;28;20979;-69
2023/05/09 09:06:40;;;;;;;4.13;3.72;;;;;;;;;;5097274;28;20244;-67
2023/05/09 09:09:08;;;;;;;7.32;3.50;;;;;;;;;;5109165;28;20047;-67
2023/05/09 09:11:36;;;;;;;4.70;3.90;;;;;;;;;;5112919;28;20039;-67
2023/05/09 09:14:12;;;;;;;6.03;3.53;;;;;;;;;;5112163;28;20089;-66
2023/05/09 09:16:41;;;;;;;4.38;3.60;;;;;;;;;;5112997;28;20045;-66
2023/05/09 09:19:12;;;;;;;5.13;3.53;;;;;;;;;;5111801;28;20126;-67
2023/05/09 09:21:41;;;;;;;3.30;2.45;;;;;;;;;;5112808;28;20047;-66
2023/05/09 09:24:08;;;;;;;3.15;2.83;;;;;;;;;;5113237;28;20783;-66
2023/05/09 09:26:35;;;;;;;3.63;2.55;;;;;;;;;;5111981;28;20436;-67
2023/05/09 09:29:02;;;;;;;4.43;2.80;;;;;;;;;;5112720;28;20130;-66
2023/05/09 09:31:32;;;;;;;3.88;3.08;;;;;;;;;;5111538;28;20047;-65
2023/05/09 09:34:03;;;;;;;3.47;2.80;;;;;;;;;;5106795;28;20494;-66
2023/05/09 09:36:31;;;;;;;6.60;3.40;;;;;;;;;;5100884;28;20140;-67
2023/05/09 09:39:00;;;;;;;4.05;2.83;;;;;;;;;;5092457;28;20508;-66
2023/05/09 09:41:33;;;;;;;5.75;2.88;;;;;;;;;;5091359;28;20055;-66
2023/05/09 09:44:06;;;;;;;3.63;2.55;;;;;;;;;;5092199;28;20508;-68
2023/05/09 09:46:41;;;;;;;4.28;3.17;;;;;;;;;;5092187;28;20044;-66
2023/05/09 09:49:10;;;;;;;4.13;3.17;;;;;;;;;;5092011;28;20048;-66
2023/05/09 09:51:37;;;;;;;4.93;3.25;;;;;;;;;;5091882;28;20509;-66
2023/05/09 09:54:05;;;;;;;4.20;2.72;;;;;;;;;;5091674;28;20048;-66
2023/05/09 09:56:42;;;;;;;6.10;2.95;;;;;;;;;;5109058;28;20505;-66
2023/05/09 09:59:11;;;;;;;3.72;2.95;;;;;;;;;;5112290;28;20504;-65
2023/05/09 10:01:54;;;;;;;4.40;3.70;;;;;;;;;;5111918;28;20476;-66
2023/05/09 10:04:22;;;;;;;5.00;3.53;;;;;;;;;;5108805;28;20046;-66
2023/05/09 10:06:53;;;;;;;4.32;3.22;;;;;;;;;;5112265;28;20513;-66
2023/05/09 10:09:21;;;;;;;4.63;3.97;;;;;;;;;;5112010;28;20108;-67
2023/05/09 10:11:49;;;;;;;4.63;3.53;;;;;;;;;;5112064;28;20187;-67
2023/05/09 10:14:18;;;;;;;3.70;3.00;;;;;;;;;;5112641;28;20040;-66
2023/05/09 10:16:46;;;;;;;6.68;3.60;;;;;;;;;;5111166;28;20497;-67
2023/05/09 10:19:13;;;;;;;4.35;3.00;;;;;;;;;;5112101;28;20485;-68
2023/05/09 10:21:42;;;;;;;3.53;3.17;;;;;;;;;;5111198;28;20516;-67
2023/05/09 10:24:10;;;;;;;5.38;4.18;;;;;;;;;;5111972;28;20054;-67
2023/05/09 10:26:40;;;;;;;5.07;2.70;;;;;;;;;;5111523;28;20508;-67
2023/05/09 10:29:12;;;;;;;4.30;2.83;;;;;;;;;;5112421;28;20048;-67
2023/05/09 10:31:40;;;;;;;4.07;2.63;;;;;;;;;;5111612;28;20519;-66
2023/05/09 10:34:11;;;;;;;3.78;2.55;;;;;;;;;;5107902;28;20058;-66
2023/05/09 10:36:37;;;;;;;3.72;2.72;;;;;;;;;;5111850;28;20401;-66
2023/05/09 10:39:06;;;;;;;4.53;2.85;;;;;;;;;;5111309;28;20441;-67
2023/05/09 10:41:33;;;;;;;4.72;2.70;;;;;;;;;;5111665;28;20044;-66
2023/05/09 10:44:00;;;;;;;3.20;2.60;;;;;;;;;;5111476;28;20040;-66
2023/05/09 10:46:27;;;;;;;4.65;2.80;;;;;;;;;;5111425;28;20054;-66
2023/05/09 10:48:54;;;;;;;3.10;2.70;;;;;;;;;;5110939;28;20056;-67
2023/05/09 10:51:21;;;;;;;3.03;2.50;;;;;;;;;;5110792;28;20432;-66
2023/05/09 10:53:49;;;;;;;2.92;2.63;;;;;;;;;;5111691;28;20047;-67
2023/05/09 10:56:29;;;;;;;4.30;2.67;;;;;;;;;;5090444;28;20044;-67
2023/05/09 10:59:03;;;;;;;3.38;2.78;;;;;;;;;;5090805;28;20044;-67
2023/05/09 11:01:33;;;;;;;6.20;3.15;;;;;;;;;;5090269;28;20059;-66
2023/05/09 11:04:01;;;;;;;3.83;2.67;;;;;;;;;;5096464;28;20044;-67
2023/05/09 11:06:45;;;;;;;3.03;2.58;;;;;;;;;;5090491;28;20079;-68
2023/05/09 11:09:26;;;;;;;3.15;2.78;;;;;;;;;;5091163;28;20052;-67
2023/05/09 11:11:56;;;;;;;2.95;2.55;;;;;;;;;;5090598;28;20040;-67
2023/05/09 11:14:30;;;;;;;4.70;2.95;;;;;;;;;;5091101;28;20044;-67
2023/05/09 11:16:58;;;;;;;3.33;2.30;;;;;;;;;;5100811;28;20541;-67
2023/05/09 11:19:35;;;;;;;3.58;2.28;;;;;;;;;;5110989;28;20046;-67
2023/05/09 11:22:04;;;;;;;4.70;2.50;;;;;;;;;;5110759;28;20043;-66
2023/05/09 11:24:32;;;;;;;3.55;2.50;;;;;;;;;;5111488;28;20043;-66
2023/05/09 11:27:01;;;;;;;2.97;2.40;;;;;;;;;;5111391;28;20065;-67
2023/05/09 11:29:27;;;;;;;3.33;2.40;;;;;;;;;;5111668;28;20107;-67
2023/05/09 11:32:07;;;;;;;2.53;2.25;;;;;;;;;;5111699;28;20248;-66
2023/05/09 11:34:36;;;;;;;3.35;2.38;;;;;;;;;;5109589;28;20055;-67
2023/05/09 11:37:10;;;;;;;3.35;2.38;;;;;;;;;;5110690;28;20083;-67
2023/05/09 11:39:56;;;;;;;3.47;2.38;;;;;;;;;;5110838;28;20397;-66
2023/05/09 11:42:25;;;;;;;3.72;2.40;;;;;;;;;;5111150;28;20425;-67
2023/05/09 11:44:52;;;;;;;3.78;2.40;;;;;;;;;;5110322;28;20044;-66
2023/05/09 11:47:19;;;;;;;3.22;2.47;;;;;;;;;;5111029;28;20055;-66
2023/05/09 11:49:46;;;;;;;3.35;2.38;;;;;;;;;;5110537;28;20047;-66
2023/05/09 11:52:12;;;;;;;3.90;2.20;;;;;;;;;;5111128;28;20043;-67
2023/05/09 11:54:39;;;;;;;3.65;2.05;;;;;;;;;;5110440;28;20066;-67
2023/05/09 11:57:06;;;;;;;3.78;2.30;;;;;;;;;;5110498;28;20051;-66
2023/05/09 11:59:35;;;;;;;3.22;2.20;;;;;;;;;;5110053;28;20043;-67
2023/05/09 12:02:03;;;;;;;4.35;2.80;;;;;;;;;;5112601;28;20474;-67
2023/05/09 12:04:30;;;;;;;2.90;1.92;;;;;;;;;;5115277;28;20048;-67
2023/05/09 12:06:58;;;;;;;4.07;2.08;;;;;;;;;;5114594;28;20054;-66
2023/05/09 12:09:26;;;;;;;2.83;1.83;;;;;;;;;;5115074;28;20044;-67
2023/05/09 12:11:52;;;;;;;2.38;1.90;;;;;;;;;;5112304;28;20097;-67
2023/05/09 12:14:29;;;;;;;2.40;2.20;;;;;;;;;;5115033;28;20047;-66
2023/05/09 12:16:58;;;;;;;2.67;2.47;;;;;;;;;;5114004;28;20048;-66
2023/05/09 12:19:25;;;;;;;3.08;2.40;;;;;;;;;;5114419;28;20050;-66
2023/05/09 12:21:56;;;;;;;3.80;2.30;;;;;;;;;;5114574;28;20397;-66
2023/05/09 12:24:23;;;;;;;2.22;2.00;;;;;;;;;;5114842;28;20545;-66
2023/05/09 12:26:50;;;;;;;4.13;2.28;;;;;;;;;;5114018;28;20087;-67
2023/05/09 12:29:18;;;;;;;3.35;2.42;;;;;;;;;;5114687;28;20047;-66
2023/05/09 12:31:44;;;;;;;4.47;2.50;;;;;;;;;;5113849;28;20131;-66
2023/05/09 12:34:13;;;;;;;3.35;2.17;;;;;;;;;;5112608;28;20050;-66
2023/05/09 12:36:39;;;;;;;4.22;2.30;;;;;;;;;;5114648;28;20417;-66
2023/05/09 12:39:10;;;;;;;2.28;2.00;;;;;;;;;;5113734;28;20047;-66
2023/05/09 12:41:43;;;;;;;2.47;1.80;;;;;;;;;;5113922;28;20043;-67
2023/05/09 12:44:09;;;;;;;2.28;1.90;;;;;;;;;;5113922;28;20492;-66
2023/05/09 12:46:36;;;;;;;3.38;1.90;;;;;;;;;;5113841;28;20428;-66
2023/05/09 12:49:04;;;;;;;4.47;1.98;;;;;;;;;;5113721;28;20040;-66
2023/05/09 12:51:32;;;;;;;3.10;1.90;;;;;;;;;;5113581;28;20071;-66
2023/05/09 12:54:03;;;;;;;3.67;1.80;;;;;;;;;;5112529;28;20040;-66
2023/05/09 12:56:33;;;;;;;2.10;1.90;;;;;;;;;;5114204;28;20047;-66
2023/05/09 12:59:00;;;;;;;2.13;1.92;;;;;;;;;;5113935;28;20327;-67
2023/05/09 13:01:28;;;;;;;3.90;1.90;;;;;;;;;;5113304;28;20056;-66
2023/05/09 13:04:04;;;;;;;2.38;2.00;;;;;;;;;;5112883;28;20040;-67
2023/05/09 13:06:32;;;;;;;2.13;1.92;;;;;;;;;;5113467;28;20048;-66
2023/05/09 13:09:01;;;;;;;3.85;1.83;;;;;;;;;;5113886;28;20043;-67
2023/05/09 13:11:28;;;;;;;3.72;2.05;;;;;;;;;;5113129;28;20465;-67
2023/05/09 13:13:55;;;;;;;3.78;2.00;;;;;;;;;;5113371;28;20389;-67
2023/05/09 13:16:21;;;;;;;3.95;2.50;;;;;;;;;;5113188;27;20043;-67
2023/05/09 13:18:48;;;;;;;2.58;2.30;;;;;;;;;;5113601;27;20519;-67
2023/05/09 13:21:15;;;;;;;2.38;2.13;;;;;;;;;;5112943;28;20044;-66
2023/05/09 13:23:44;;;;;;;3.03;2.10;;;;;;;;;;5113323;28;20039;-66
2023/05/09 13:26:10;;;;;;;5.00;2.58;;;;;;;;;;5113050;28;20094;-66
2023/05/09 13:28:37;;;;;;;5.03;2.70;;;;;;;;;;5112886;27;20493;-66
2023/05/09 13:31:03;;;;;;;3.45;2.55;;;;;;;;;;5111852;28;20522;-66
2023/05/09 13:33:30;;;;;;;3.33;3.03;;;;;;;;;;5113007;28;20043;-67
2023/05/09 13:35:56;;;;;;;3.42;3.13;;;;;;;;;;5113199;28;20043;-66
2023/05/09 13:38:24;;;;;;;4.60;3.33;;;;;;;;;;5112756;28;20052;-66
2023/05/09 13:40:52;;;;;;;4.15;3.35;;;;;;;;;;5113293;28;20043;-66
2023/05/09 13:43:18;;;;;;;5.32;3.70;;;;;;;;;;5112935;28;20047;-66
2023/05/09 13:45:45;;;;;;;7.53;4.55;;;;;;;;;;5115316;22;20390;-65
2023/05/09 13:48:11;;;;;;;5.00;3.80;;;;;;;;;;5086668;28;20040;-65
2023/05/09 13:50:38;;;;;;;5.70;4.18;;;;;;;;;;5089932;28;20046;-65
2023/05/09 13:53:04;;;;;;;5.70;4.13;;;;;;;;;;5092050;28;20064;-64
2023/05/09 13:55:33;;;;;;;7.15;5.72;;;;;;;;;;5091507;28;20402;-65
2023/05/09 13:58:01;;;;;;;4.78;4.38;;;;;;;;;;5091941;28;20044;-65
2023/05/09 14:00:28;;;;;;;5.85;4.28;;;;;;;;;;5090859;28;20051;-65
2023/05/09 14:02:55;;;;;;;7.28;4.57;;;;;;;;;;5091668;28;20058;-65
2023/05/09 14:05:21;;;;;;;5.30;4.80;;;;;;;;;;5091198;28;20054;-65
2023/05/09 14:07:48;;;;;;;7.25;4.75;;;;;;;;;;5091975;28;20056;-65
2023/05/09 14:10:14;;;;;;;6.63;4.85;;;;;;;;;;5091055;28;20039;-65
2023/05/09 14:12:43;;;;;;;5.97;4.88;;;;;;;;;;5091528;28;20050;-65
2023/05/09 14:15:11;;;;;;;7.57;4.80;;;;;;;;;;5091270;28;20099;-65
2023/05/09 14:17:38;;;;;;;6.13;4.82;;;;;;;;;;5091198;28;20455;-64
2023/05/09 14:20:07;;;;;;;6.10;5.50;;;;;;;;;;5076780;28;20044;-65
2023/05/09 14:22:33;;;;;;;6.20;5.05;;;;;;;;;;5070910;28;20442;-65
2023/05/09 14:25:00;;;;;;;6.63;5.32;;;;;;;;;;5070601;28;20045;-65
2023/05/09 14:27:26;;;;;;;6.57;5.57;;;;;;;;;;5070344;28;20056;-64
2023/05/09 14:29:53;;;;;;;9.98;7.55;;;;;;;;;;5071096;28;20044;-65
2023/05/09 14:32:21;;;;;;;6.85;5.95;;;;;;;;;;5071025;28;20051;-65
2023/05/09 14:34:48;;;;;;;6.25;5.60;;;;;;;;;;5070925;28;20071;-65
2023/05/09 14:37:14;;;;;;;7.68;6.53;;;;;;;;;;5070870;28;20432;-63
2023/05/09 14:39:41;;;;;;;9.48;6.53;;;;;;;;;;5070245;28;20486;-63
2023/05/09 14:42:10;;;;;;;8.55;6.95;;;;;;;;;;5071132;28;20072;-63
2023/05/09 14:44:37;;;;;;;8.25;7.05;;;;;;;;;;5070774;28;20520;-64
2023/05/09 14:47:03;;;;;;;8.00;6.57;;;;;;;;;;5070976;28;20048;-63
2023/05/09 14:49:32;;;;;;;9.30;6.70;;;;;;;;;;5074426;28;20750;-63
2023/05/09 14:51:58;;;;;;;7.78;6.93;;;;;;;;;;5091362;28;20521;-67